sensor_id;sensor_type;location;lat;lon;timestamp;pressure;altitude;pressure_sealevel;temperature;humidity
59367;BME280;45163;47.690;11.770;2023-10-19T00:00:36;91947.72;;;8.50;100.00
59367;BME280;45163;47.690;11.770;2023-10-19T00:03:05;91958.75;;;8.55;100.00
59367;BME280;45163;47.690;11.770;2023-10-19T00:05:35;91945.16;;;8.46;100.00
59367;BME280;45163;47.690;11.770;2023-10-19T00:08:06;91938.34;;;8.60;100.00
59367;BME280;45163;47.690;11.770;2023-10-19T00:10:50;91930.47;;;8.71;100.00
59367;BME280;45163;47.690;11.770;2023-10-19T00:13:36;91932.00;;;8.63;100.00
59367;BME280;45163;47.690;11.770;2023-10-19T00:16:04;91944.69;;;8.47;100.00
59367;BME280;45163;47.690;11.770;2023-10-19T00:18:45;91926.59;;;8.44;100.00
59367;BME280;45163;47.690;11.770;2023-10-19T00:21:18;91933.38;;;8.58;100.00
59367;BME280;45163;47.690;11.770;2023-10-19T00:23:53;91929.91;;;8.58;100.00
59367;BME280;45163;47.690;11.770;2023-10-19T00:26:30;91933.34;;;8.21;100.00
59367;BME280;45163;47.690;11.770;2023-10-19T00:28:56;91934.56;;;8.11;100.00
59367;BME280;45163;47.690;11.770;2023-10-19T00:31:24;91924.75;;;8.14;100.00
59367;BME280;45163;47.690;11.770;2023-10-19T00:33:50;91924.16;;;8.28;100.00
59367;BME280;45163;47.690;11.770;2023-10-19T00:36:20;91921.31;;;8.41;100.00
59367;BME280;45163;47.690;11.770;2023-10-19T00:38:47;91923.84;;;8.26;100.00
59367;BME280;45163;47.690;11.770;2023-10-19T00:41:18;91922.47;;;8.31;100.00
59367;BME280;45163;47.690;11.770;2023-10-19T00:44:03;91921.13;;;8.17;100.00
59367;BME280;45163;47.690;11.770;2023-10-19T00:46:36;91919.16;;;8.17;100.00
59367;BME280;45163;47.690;11.770;2023-10-19T00:49:10;91913.56;;;8.30;100.00
59367;BME280;45163;47.690;11.770;2023-10-19T00:51:42;91921.72;;;8.21;100.00
59367;BME280;45163;47.690;11.770;2023-10-19T00:54:26;91909.81;;;8.37;100.00
59367;BME280;45163;47.690;11.770;2023-10-19T00:56:59;91914.31;;;8.21;100.00
59367;BME280;45163;47.690;11.770;2023-10-19T00:59:30;91901.19;;;8.29;100.00
59367;BME280;45163;47.690;11.770;2023-10-19T01:01:56;91897.56;;;8.23;100.00
59367;BME280;45163;47.690;11.770;2023-10-19T01:04:42;91895.00;;;8.29;100.00
59367;BME280;45163;47.690;11.770;2023-10-19T01:07:11;91897.88;;;8.16;100.00
59367;BME280;45163;47.690;11.770;2023-10-19T01:09:43;91899.81;;;8.06;100.00
59367;BME280;45163;47.690;11.770;2023-10-19T01:12:10;91893.66;;;8.24;100.00
59367;BME280;45163;47.690;11.770;2023-10-19T01:17:32;91891.97;;;8.36;100.00
59367;BME280;45163;47.690;11.770;2023-10-19T01:20:15;91885.16;;;8.31;100.00
59367;BME280;45163;47.690;11.770;2023-10-19T01:23:06;91883.78;;;8.36;100.00
59367;BME280;45163;47.690;11.770;2023-10-19T01:28:08;91881.44;;;8.38;100.00
59367;BME280;45163;47.690;11.770;2023-10-19T01:30:37;91877.47;;;8.30;100.00
59367;BME280;45163;47.690;11.770;2023-10-19T01:33:04;91879.31;;;8.42;100.00
59367;BME280;45163;47.690;11.770;2023-10-19T01:35:34;91877.00;;;8.59;100.00
59367;BME280;45163;47.690;11.770;2023-10-19T01:38:18;91871.38;;;8.71;100.00
59367;BME280;45163;47.690;11.770;2023-10-19T01:40:44;91872.53;;;8.89;100.00
59367;BME280;45163;47.690;11.770;2023-10-19T01:43:14;91862.75;;;9.15;100.00
59367;BME280;45163;47.690;11.770;2023-10-19T01:45:47;91862.03;;;9.39;100.00
59367;BME280;45163;47.690;11.770;2023-10-19T01:48:13;91856.53;;;9.48;100.00
59367;BME280;45163;47.690;11.770;2023-10-19T01:50:41;91857.72;;;9.32;100.00
59367;BME280;45163;47.690;11.770;2023-10-19T01:53:07;91864.59;;;9.42;100.00
59367;BME280;45163;47.690;11.770;2023-10-19T01:55:43;91854.63;;;9.39;100.00
59367;BME280;45163;47.690;11.770;2023-10-19T01:58:10;91862.16;;;9.44;100.00
59367;BME280;45163;47.690;11.770;2023-10-19T02:00:36;91865.59;;;9.78;100.00
59367;BME280;45163;47.690;11.770;2023-10-19T02:03:08;91862.44;;;9.94;100.00
59367;BME280;45163;47.690;11.770;2023-10-19T02:05:35;91857.72;;;9.80;100.00
59367;BME280;45163;47.690;11.770;2023-10-19T02:08:08;91856.03;;;9.83;100.00
59367;BME280;45163;47.690;11.770;2023-10-19T02:10:34;91863.16;;;10.04;100.00
59367;BME280;45163;47.690;11.770;2023-10-19T02:13:01;91860.66;;;9.91;100.00
59367;BME280;45163;47.690;11.770;2023-10-19T02:15:33;91866.22;;;9.97;100.00
59367;BME280;45163;47.690;11.770;2023-10-19T02:18:03;91866.28;;;9.88;100.00
59367;BME280;45163;47.690;11.770;2023-10-19T02:20:29;91868.25;;;9.63;100.00
59367;BME280;45163;47.690;11.770;2023-10-19T02:22:55;91872.13;;;9.47;100.00
59367;BME280;45163;47.690;11.770;2023-10-19T02:25:25;91865.09;;;9.32;100.00
59367;BME280;45163;47.690;11.770;2023-10-19T02:27:59;91870.22;;;9.39;100.00
59367;BME280;45163;47.690;11.770;2023-10-19T02:30:25;91870.25;;;9.30;100.00
59367;BME280;45163;47.690;11.770;2023-10-19T02:32:51;91861.78;;;9.28;100.00
59367;BME280;45163;47.690;11.770;2023-10-19T02:35:19;91860.44;;;9.23;100.00
59367;BME280;45163;47.690;11.770;2023-10-19T02:37:45;91861.28;;;9.05;100.00
59367;BME280;45163;47.690;11.770;2023-10-19T02:40:11;91867.78;;;9.08;100.00
59367;BME280;45163;47.690;11.770;2023-10-19T02:42:46;91860.53;;;9.05;100.00
59367;BME280;45163;47.690;11.770;2023-10-19T02:45:19;91870.56;;;8.89;100.00
59367;BME280;45163;47.690;11.770;2023-10-19T02:47:45;91865.72;;;8.93;100.00
59367;BME280;45163;47.690;11.770;2023-10-19T02:50:12;91867.09;;;8.89;100.00
59367;BME280;45163;47.690;11.770;2023-10-19T02:52:49;91865.88;;;8.90;100.00
59367;BME280;45163;47.690;11.770;2023-10-19T02:55:15;91864.06;;;8.96;100.00
59367;BME280;45163;47.690;11.770;2023-10-19T02:57:45;91873.28;;;8.89;100.00
59367;BME280;45163;47.690;11.770;2023-10-19T03:00:12;91868.16;;;8.91;100.00
59367;BME280;45163;47.690;11.770;2023-10-19T03:02:46;91870.56;;;8.89;100.00
59367;BME280;45163;47.690;11.770;2023-10-19T03:05:12;91865.47;;;8.82;100.00
59367;BME280;45163;47.690;11.770;2023-10-19T03:07:43;91862.41;;;8.89;100.00
59367;BME280;45163;47.690;11.770;2023-10-19T03:10:10;91867.38;;;9.00;100.00
59367;BME280;45163;47.690;11.770;2023-10-19T03:12:55;91862.84;;;8.97;100.00
59367;BME280;45163;47.690;11.770;2023-10-19T03:15:23;91865.53;;;9.06;100.00
59367;BME280;45163;47.690;11.770;2023-10-19T03:17:49;91871.56;;;9.10;100.00
59367;BME280;45163;47.690;11.770;2023-10-19T03:20:15;91867.56;;;8.87;100.00
59367;BME280;45163;47.690;11.770;2023-10-19T03:22:43;91860.94;;;8.79;100.00
59367;BME280;45163;47.690;11.770;2023-10-19T03:25:13;91857.16;;;8.77;100.00
59367;BME280;45163;47.690;11.770;2023-10-19T03:27:57;91859.44;;;8.69;100.00
59367;BME280;45163;47.690;11.770;2023-10-19T03:30:31;91862.31;;;8.75;100.00
59367;BME280;45163;47.690;11.770;2023-10-19T03:32:57;91862.59;;;8.77;100.00
59367;BME280;45163;47.690;11.770;2023-10-19T03:35:25;91863.59;;;8.97;100.00
59367;BME280;45163;47.690;11.770;2023-10-19T03:37:52;91853.59;;;9.04;100.00
59367;BME280;45163;47.690;11.770;2023-10-19T03:40:18;91851.25;;;9.20;100.00
59367;BME280;45163;47.690;11.770;2023-10-19T03:42:54;91853.13;;;9.05;100.00
59367;BME280;45163;47.690;11.770;2023-10-19T03:45:20;91849.44;;;9.17;100.00
59367;BME280;45163;47.690;11.770;2023-10-19T03:47:52;91841.97;;;9.27;100.00
59367;BME280;45163;47.690;11.770;2023-10-19T03:50:21;91846.97;;;9.29;100.00
59367;BME280;45163;47.690;11.770;2023-10-19T03:52:47;91839.41;;;9.33;100.00
59367;BME280;45163;47.690;11.770;2023-10-19T03:55:13;91832.66;;;9.19;100.00
59367;BME280;45163;47.690;11.770;2023-10-19T03:57:45;91830.88;;;9.40;100.00
59367;BME280;45163;47.690;11.770;2023-10-19T04:00:20;91823.91;;;9.39;100.00
59367;BME280;45163;47.690;11.770;2023-10-19T04:02:51;91828.63;;;9.38;100.00
59367;BME280;45163;47.690;11.770;2023-10-19T04:05:19;91821.88;;;9.48;100.00
59367;BME280;45163;47.690;11.770;2023-10-19T04:07:52;91826.72;;;9.54;100.00
59367;BME280;45163;47.690;11.770;2023-10-19T04:10:24;91815.06;;;9.53;100.00
59367;BME280;45163;47.690;11.770;2023-10-19T04:12:56;91813.72;;;9.48;100.00
59367;BME280;45163;47.690;11.770;2023-10-19T04:15:25;91816.66;;;9.36;100.00
59367;BME280;45163;47.690;11.770;2023-10-19T04:17:52;91813.13;;;9.44;100.00
59367;BME280;45163;47.690;11.770;2023-10-19T04:20:24;91808.50;;;9.36;100.00
59367;BME280;45163;47.690;11.770;2023-10-19T04:23:08;91811.47;;;9.47;100.00
59367;BME280;45163;47.690;11.770;2023-10-19T04:25:36;91810.38;;;9.54;100.00
59367;BME280;45163;47.690;11.770;2023-10-19T04:28:03;91804.75;;;9.57;100.00
59367;BME280;45163;47.690;11.770;2023-10-19T04:30:30;91809.84;;;9.64;100.00
59367;BME280;45163;47.690;11.770;2023-10-19T04:32:59;91805.31;;;9.61;100.00
59367;BME280;45163;47.690;11.770;2023-10-19T04:35:27;91799.84;;;9.61;100.00
59367;BME280;45163;47.690;11.770;2023-10-19T04:37:58;91792.50;;;9.53;100.00
59367;BME280;45163;47.690;11.770;2023-10-19T04:40:24;91787.19;;;9.34;100.00
59367;BME280;45163;47.690;11.770;2023-10-19T04:42:51;91781.47;;;9.32;100.00
59367;BME280;45163;47.690;11.770;2023-10-19T04:45:18;91791.88;;;9.58;100.00
59367;BME280;45163;47.690;11.770;2023-10-19T04:47:44;91784.31;;;9.38;100.00
59367;BME280;45163;47.690;11.770;2023-10-19T04:50:10;91786.84;;;9.41;100.00
59367;BME280;45163;47.690;11.770;2023-10-19T04:52:36;91788.22;;;9.61;100.00
59367;BME280;45163;47.690;11.770;2023-10-19T04:55:03;91787.59;;;9.42;100.00
59367;BME280;45163;47.690;11.770;2023-10-19T04:57:29;91780.41;;;9.54;100.00
59367;BME280;45163;47.690;11.770;2023-10-19T04:59:56;91780.50;;;9.59;100.00
59367;BME280;45163;47.690;11.770;2023-10-19T05:02:22;91770.03;;;9.67;100.00
59367;BME280;45163;47.690;11.770;2023-10-19T05:04:49;91773.84;;;9.60;100.00
59367;BME280;45163;47.690;11.770;2023-10-19T05:07:15;91770.13;;;9.72;100.00
59367;BME280;45163;47.690;11.770;2023-10-19T05:09:45;91766.97;;;9.50;100.00
59367;BME280;45163;47.690;11.770;2023-10-19T05:12:11;91770.91;;;9.49;100.00
59367;BME280;45163;47.690;11.770;2023-10-19T05:14:41;91774.22;;;9.53;100.00
59367;BME280;45163;47.690;11.770;2023-10-19T05:17:08;91776.97;;;9.68;100.00
59367;BME280;45163;47.690;11.770;2023-10-19T05:19:39;91771.66;;;9.50;100.00
59367;BME280;45163;47.690;11.770;2023-10-19T05:22:07;91767.72;;;9.51;100.00
59367;BME280;45163;47.690;11.770;2023-10-19T05:24:34;91773.63;;;9.49;100.00
59367;BME280;45163;47.690;11.770;2023-10-19T05:27:00;91778.72;;;9.56;100.00
59367;BME280;45163;47.690;11.770;2023-10-19T05:29:26;91768.63;;;9.47;100.00
59367;BME280;45163;47.690;11.770;2023-10-19T05:31:52;91768.94;;;9.50;100.00
59367;BME280;45163;47.690;11.770;2023-10-19T05:34:24;91770.09;;;9.58;100.00
59367;BME280;45163;47.690;11.770;2023-10-19T05:36:52;91774.00;;;9.57;100.00
59367;BME280;45163;47.690;11.770;2023-10-19T05:39:19;91778.06;;;9.61;100.00
59367;BME280;45163;47.690;11.770;2023-10-19T05:41:46;91773.66;;;9.64;100.00
59367;BME280;45163;47.690;11.770;2023-10-19T05:44:12;91775.53;;;9.58;100.00
59367;BME280;45163;47.690;11.770;2023-10-19T05:46:38;91772.44;;;9.65;100.00
59367;BME280;45163;47.690;11.770;2023-10-19T05:49:06;91779.88;;;9.64;100.00
59367;BME280;45163;47.690;11.770;2023-10-19T05:51:32;91776.25;;;9.82;100.00
59367;BME280;45163;47.690;11.770;2023-10-19T05:53:58;91775.78;;;9.84;100.00
59367;BME280;45163;47.690;11.770;2023-10-19T05:56:28;91777.84;;;9.89;100.00
59367;BME280;45163;47.690;11.770;2023-10-19T05:58:54;91779.41;;;10.05;100.00
59367;BME280;45163;47.690;11.770;2023-10-19T06:01:20;91785.19;;;9.97;100.00
59367;BME280;45163;47.690;11.770;2023-10-19T06:03:48;91775.81;;;10.13;100.00
59367;BME280;45163;47.690;11.770;2023-10-19T06:06:14;91776.06;;;10.25;100.00
59367;BME280;45163;47.690;11.770;2023-10-19T06:08:40;91781.03;;;10.26;100.00
59367;BME280;45163;47.690;11.770;2023-10-19T06:11:06;91777.31;;;10.14;100.00
59367;BME280;45163;47.690;11.770;2023-10-19T06:13:32;91789.28;;;10.17;100.00
59367;BME280;45163;47.690;11.770;2023-10-19T06:15:58;91787.38;;;10.23;100.00
59367;BME280;45163;47.690;11.770;2023-10-19T06:18:24;91784.81;;;10.29;100.00
59367;BME280;45163;47.690;11.770;2023-10-19T06:20:50;91782.69;;;10.09;100.00
59367;BME280;45163;47.690;11.770;2023-10-19T06:23:17;91782.25;;;10.25;100.00
59367;BME280;45163;47.690;11.770;2023-10-19T06:25:44;91781.84;;;10.17;100.00
59367;BME280;45163;47.690;11.770;2023-10-19T06:28:10;91780.09;;;10.29;100.00
59367;BME280;45163;47.690;11.770;2023-10-19T06:30:37;91784.41;;;10.21;100.00
59367;BME280;45163;47.690;11.770;2023-10-19T06:33:03;91790.63;;;10.36;100.00
59367;BME280;45163;47.690;11.770;2023-10-19T06:35:31;91789.81;;;10.45;100.00
59367;BME280;45163;47.690;11.770;2023-10-19T06:37:58;91793.38;;;10.66;100.00
59367;BME280;45163;47.690;11.770;2023-10-19T06:40:24;91787.88;;;10.81;100.00
59367;BME280;45163;47.690;11.770;2023-10-19T06:42:54;91787.94;;;11.01;100.00
59367;BME280;45163;47.690;11.770;2023-10-19T06:45:24;91783.91;;;10.96;100.00
59367;BME280;45163;47.690;11.770;2023-10-19T06:47:52;91788.56;;;11.11;100.00
59367;BME280;45163;47.690;11.770;2023-10-19T06:50:20;91782.84;;;11.09;100.00
59367;BME280;45163;47.690;11.770;2023-10-19T06:52:47;91793.91;;;11.20;100.00
59367;BME280;45163;47.690;11.770;2023-10-19T06:55:17;91795.13;;;11.19;100.00
59367;BME280;45163;47.690;11.770;2023-10-19T06:57:56;91787.91;;;11.36;100.00
59367;BME280;45163;47.690;11.770;2023-10-19T07:00:23;91792.38;;;11.34;100.00
59367;BME280;45163;47.690;11.770;2023-10-19T07:02:53;91793.34;;;11.51;100.00
59367;BME280;45163;47.690;11.770;2023-10-19T07:05:21;91791.44;;;11.78;100.00
59367;BME280;45163;47.690;11.770;2023-10-19T07:07:51;91780.84;;;11.65;100.00
59367;BME280;45163;47.690;11.770;2023-10-19T07:10:18;91775.91;;;12.10;100.00
59367;BME280;45163;47.690;11.770;2023-10-19T07:12:46;91775.09;;;12.04;100.00
59367;BME280;45163;47.690;11.770;2023-10-19T07:15:13;91769.28;;;12.16;100.00
59367;BME280;45163;47.690;11.770;2023-10-19T07:17:40;91774.47;;;12.14;100.00
59367;BME280;45163;47.690;11.770;2023-10-19T07:20:08;91773.19;;;12.36;100.00
59367;BME280;45163;47.690;11.770;2023-10-19T07:22:41;91776.88;;;12.33;100.00
59367;BME280;45163;47.690;11.770;2023-10-19T07:25:08;91785.94;;;12.44;100.00
59367;BME280;45163;47.690;11.770;2023-10-19T07:27:35;91772.25;;;12.44;100.00
59367;BME280;45163;47.690;11.770;2023-10-19T07:30:01;91767.50;;;12.39;100.00
59367;BME280;45163;47.690;11.770;2023-10-19T07:32:31;91773.63;;;12.55;100.00
59367;BME280;45163;47.690;11.770;2023-10-19T07:34:57;91773.13;;;12.56;100.00
59367;BME280;45163;47.690;11.770;2023-10-19T07:37:23;91771.13;;;12.57;100.00
59367;BME280;45163;47.690;11.770;2023-10-19T07:39:50;91774.28;;;12.50;100.00
59367;BME280;45163;47.690;11.770;2023-10-19T07:42:25;91763.88;;;12.80;100.00
59367;BME280;45163;47.690;11.770;2023-10-19T07:44:51;91759.34;;;12.77;100.00
59367;BME280;45163;47.690;11.770;2023-10-19T07:47:17;91768.94;;;12.92;100.00
59367;BME280;45163;47.690;11.770;2023-10-19T07:49:43;91758.97;;;12.95;100.00
59367;BME280;45163;47.690;11.770;2023-10-19T07:52:09;91763.25;;;12.96;100.00
59367;BME280;45163;47.690;11.770;2023-10-19T07:54:40;91756.75;;;12.93;100.00
59367;BME280;45163;47.690;11.770;2023-10-19T07:57:06;91761.88;;;13.17;100.00
59367;BME280;45163;47.690;11.770;2023-10-19T07:59:32;91756.31;;;13.38;100.00
59367;BME280;45163;47.690;11.770;2023-10-19T08:01:59;91747.44;;;13.65;100.00
59367;BME280;45163;47.690;11.770;2023-10-19T08:04:28;91745.50;;;13.72;100.00
59367;BME280;45163;47.690;11.770;2023-10-19T08:06:55;91732.59;;;14.00;100.00
59367;BME280;45163;47.690;11.770;2023-10-19T08:09:24;91736.63;;;14.05;100.00
59367;BME280;45163;47.690;11.770;2023-10-19T08:11:52;91728.44;;;14.22;100.00
59367;BME280;45163;47.690;11.770;2023-10-19T08:14:22;91723.69;;;14.22;100.00
59367;BME280;45163;47.690;11.770;2023-10-19T08:16:51;91720.75;;;14.42;100.00
59367;BME280;45163;47.690;11.770;2023-10-19T08:19:17;91714.50;;;14.48;100.00
59367;BME280;45163;47.690;11.770;2023-10-19T08:21:44;91714.00;;;14.49;100.00
59367;BME280;45163;47.690;11.770;2023-10-19T08:24:10;91710.53;;;14.60;100.00
59367;BME280;45163;47.690;11.770;2023-10-19T08:26:40;91707.53;;;14.75;100.00
59367;BME280;45163;47.690;11.770;2023-10-19T08:29:08;91709.03;;;14.81;100.00
59367;BME280;45163;47.690;11.770;2023-10-19T08:31:40;91697.06;;;14.73;100.00
59367;BME280;45163;47.690;11.770;2023-10-19T08:34:06;91701.31;;;14.68;100.00
59367;BME280;45163;47.690;11.770;2023-10-19T08:36:32;91699.03;;;14.67;100.00
59367;BME280;45163;47.690;11.770;2023-10-19T08:38:58;91697.56;;;14.77;100.00
59367;BME280;45163;47.690;11.770;2023-10-19T08:41:24;91688.03;;;15.01;100.00
59367;BME280;45163;47.690;11.770;2023-10-19T08:43:50;91690.78;;;14.89;100.00
59367;BME280;45163;47.690;11.770;2023-10-19T08:46:17;91684.81;;;14.74;100.00
59367;BME280;45163;47.690;11.770;2023-10-19T08:48:43;91681.81;;;14.66;100.00
59367;BME280;45163;47.690;11.770;2023-10-19T08:51:10;91673.09;;;14.68;100.00
59367;BME280;45163;47.690;11.770;2023-10-19T08:53:39;91673.56;;;14.78;100.00
59367;BME280;45163;47.690;11.770;2023-10-19T08:56:08;91666.84;;;14.84;100.00
59367;BME280;45163;47.690;11.770;2023-10-19T08:58:34;91656.03;;;15.09;100.00
59367;BME280;45163;47.690;11.770;2023-10-19T09:01:00;91640.97;;;15.32;100.00
59367;BME280;45163;47.690;11.770;2023-10-19T09:03:33;91641.97;;;15.29;100.00
59367;BME280;45163;47.690;11.770;2023-10-19T09:06:02;91636.22;;;15.33;100.00
59367;BME280;45163;47.690;11.770;2023-10-19T09:08:28;91636.25;;;15.27;100.00
59367;BME280;45163;47.690;11.770;2023-10-19T09:11:08;91632.22;;;15.34;100.00
59367;BME280;45163;47.690;11.770;2023-10-19T09:13:51;91645.00;;;15.84;100.00
59367;BME280;45163;47.690;11.770;2023-10-19T09:16:34;91648.94;;;16.00;100.00
59367;BME280;45163;47.690;11.770;2023-10-19T09:19:02;91638.41;;;16.39;100.00
59367;BME280;45163;47.690;11.770;2023-10-19T09:21:28;91650.97;;;16.95;100.00
59367;BME280;45163;47.690;11.770;2023-10-19T09:23:56;91666.41;;;17.53;100.00
59367;BME280;45163;47.690;11.770;2023-10-19T09:26:23;91656.69;;;17.71;100.00
59367;BME280;45163;47.690;11.770;2023-10-19T09:28:51;91650.88;;;19.67;100.00
59367;BME280;45163;47.690;11.770;2023-10-19T09:31:17;91645.56;;;22.35;100.00
59367;BME280;45163;47.690;11.770;2023-10-19T09:33:45;91637.34;;;23.73;98.05
59367;BME280;45163;47.690;11.770;2023-10-19T09:36:12;91632.81;;;24.08;87.44
59367;BME280;45163;47.690;11.770;2023-10-19T09:38:49;91627.28;;;24.41;85.68
59367;BME280;45163;47.690;11.770;2023-10-19T09:41:20;91615.22;;;27.68;74.28
59367;BME280;45163;47.690;11.770;2023-10-19T09:43:48;91609.47;;;28.83;72.21
59367;BME280;45163;47.690;11.770;2023-10-19T09:46:23;91611.09;;;26.96;70.14
59367;BME280;45163;47.690;11.770;2023-10-19T09:48:50;91605.53;;;26.07;73.60
59367;BME280;45163;47.690;11.770;2023-10-19T09:51:18;91603.22;;;24.86;82.93
59367;BME280;45163;47.690;11.770;2023-10-19T09:53:58;91593.84;;;26.90;73.26
59367;BME280;45163;47.690;11.770;2023-10-19T09:56:34;91597.66;;;28.74;57.38
59367;BME280;45163;47.690;11.770;2023-10-19T09:59:22;91603.97;;;26.14;59.06
59367;BME280;45163;47.690;11.770;2023-10-19T10:02:09;91604.88;;;25.99;68.33
59367;BME280;45163;47.690;11.770;2023-10-19T10:04:43;91607.31;;;26.47;62.48
59367;BME280;45163;47.690;11.770;2023-10-19T10:07:11;91606.78;;;26.85;57.82
59367;BME280;45163;47.690;11.770;2023-10-19T10:09:39;91603.47;;;27.33;60.55
59367;BME280;45163;47.690;11.770;2023-10-19T10:12:23;91592.84;;;27.88;48.38
59367;BME280;45163;47.690;11.770;2023-10-19T10:17:25;91588.38;;;30.06;40.84
59367;BME280;45163;47.690;11.770;2023-10-19T10:20:28;91577.00;;;31.74;41.26
59367;BME280;45163;47.690;11.770;2023-10-19T10:23:18;91575.34;;;29.80;41.89
59367;BME280;45163;47.690;11.770;2023-10-19T10:25:47;91573.56;;;31.64;40.46
59367;BME280;45163;47.690;11.770;2023-10-19T10:28:19;91561.06;;;32.65;36.01
59367;BME280;45163;47.690;11.770;2023-10-19T10:31:14;91569.59;;;29.99;37.25
59367;BME280;45163;47.690;11.770;2023-10-19T10:33:45;91554.53;;;31.17;39.08
59367;BME280;45163;47.690;11.770;2023-10-19T10:36:15;91561.28;;;30.56;38.14
59367;BME280;45163;47.690;11.770;2023-10-19T10:38:43;91560.88;;;27.35;46.74
59367;BME280;45163;47.690;11.770;2023-10-19T10:41:10;91553.84;;;30.60;40.10
59367;BME280;45163;47.690;11.770;2023-10-19T10:43:53;91555.03;;;28.47;46.16
59367;BME280;45163;47.690;11.770;2023-10-19T10:46:28;91556.75;;;25.48;69.03
59367;BME280;45163;47.690;11.770;2023-10-19T10:48:57;91571.13;;;23.41;83.31
59367;BME280;45163;47.690;11.770;2023-10-19T10:51:27;91561.47;;;22.50;95.01
59367;BME280;45163;47.690;11.770;2023-10-19T10:53:55;91565.09;;;21.71;100.00
59367;BME280;45163;47.690;11.770;2023-10-19T10:56:23;91569.78;;;20.90;100.00
59367;BME280;45163;47.690;11.770;2023-10-19T10:58:49;91567.44;;;21.02;100.00
59367;BME280;45163;47.690;11.770;2023-10-19T11:01:28;91557.41;;;21.20;100.00
59367;BME280;45163;47.690;11.770;2023-10-19T11:04:11;91536.84;;;21.44;100.00
59367;BME280;45163;47.690;11.770;2023-10-19T11:06:53;91536.19;;;21.30;100.00
59367;BME280;45163;47.690;11.770;2023-10-19T11:09:22;91535.78;;;21.54;100.00
59367;BME280;45163;47.690;11.770;2023-10-19T11:11:48;91542.50;;;22.18;96.41
59367;BME280;45163;47.690;11.770;2023-10-19T11:14:20;91535.31;;;21.35;100.00
59367;BME280;45163;47.690;11.770;2023-10-19T11:16:49;91531.03;;;20.35;100.00
59367;BME280;45163;47.690;11.770;2023-10-19T11:19:15;91526.44;;;20.17;100.00
59367;BME280;45163;47.690;11.770;2023-10-19T11:21:54;91540.16;;;19.54;100.00
59367;BME280;45163;47.690;11.770;2023-10-19T11:24:27;91539.28;;;19.59;100.00
59367;BME280;45163;47.690;11.770;2023-10-19T11:26:55;91528.66;;;19.97;100.00
59367;BME280;45163;47.690;11.770;2023-10-19T11:29:21;91519.56;;;20.31;100.00
59367;BME280;45163;47.690;11.770;2023-10-19T11:34:22;91526.28;;;21.42;100.00
59367;BME280;45163;47.690;11.770;2023-10-19T11:36:52;91523.16;;;21.97;99.43
59367;BME280;45163;47.690;11.770;2023-10-19T11:39:18;91519.47;;;22.10;98.01
59367;BME280;45163;47.690;11.770;2023-10-19T11:41:46;91510.13;;;22.74;88.75
59367;BME280;45163;47.690;11.770;2023-10-19T11:44:12;91511.22;;;23.80;83.77
59367;BME280;45163;47.690;11.770;2023-10-19T11:46:39;91501.25;;;28.50;62.77
59367;BME280;45163;47.690;11.770;2023-10-19T11:49:05;91491.16;;;33.18;37.54
59367;BME280;45163;47.690;11.770;2023-10-19T11:51:32;91476.69;;;32.34;35.90
59367;BME280;45163;47.690;11.770;2023-10-19T11:53:58;91466.84;;;30.43;39.42
59367;BME280;45163;47.690;11.770;2023-10-19T11:56:23;91460.78;;;26.89;53.01
59367;BME280;45163;47.690;11.770;2023-10-19T11:58:50;91462.56;;;25.06;58.46
59367;BME280;45163;47.690;11.770;2023-10-19T12:01:17;91466.44;;;23.38;72.25
59367;BME280;45163;47.690;11.770;2023-10-19T12:03:42;91466.72;;;22.48;84.87
59367;BME280;45163;47.690;11.770;2023-10-19T12:06:12;91461.94;;;22.33;94.55
59367;BME280;45163;47.690;11.770;2023-10-19T12:08:39;91462.06;;;25.70;71.23
59367;BME280;45163;47.690;11.770;2023-10-19T12:11:06;91461.22;;;28.50;54.77
59367;BME280;45163;47.690;11.770;2023-10-19T12:13:43;91453.22;;;29.83;46.52
59367;BME280;45163;47.690;11.770;2023-10-19T12:16:10;91449.22;;;31.60;38.28
59367;BME280;45163;47.690;11.770;2023-10-19T12:18:39;91443.31;;;31.67;36.90
59367;BME280;45163;47.690;11.770;2023-10-19T12:21:05;91428.63;;;32.45;33.17
59367;BME280;45163;47.690;11.770;2023-10-19T12:23:33;91432.84;;;33.11;31.24
59367;BME280;45163;47.690;11.770;2023-10-19T12:25:59;91429.66;;;32.91;29.65
59367;BME280;45163;47.690;11.770;2023-10-19T12:28:30;91427.63;;;32.66;31.02
59367;BME280;45163;47.690;11.770;2023-10-19T12:30:56;91415.53;;;32.91;29.62
59367;BME280;45163;47.690;11.770;2023-10-19T12:33:22;91409.53;;;32.71;30.32
59367;BME280;45163;47.690;11.770;2023-10-19T12:35:48;91398.44;;;32.62;29.33
59367;BME280;45163;47.690;11.770;2023-10-19T12:38:17;91388.78;;;32.14;32.69
59367;BME280;45163;47.690;11.770;2023-10-19T12:40:47;91385.34;;;33.94;29.95
59367;BME280;45163;47.690;11.770;2023-10-19T12:43:14;91378.97;;;33.23;29.96
59367;BME280;45163;47.690;11.770;2023-10-19T12:45:41;91366.41;;;32.71;30.20
59367;BME280;45163;47.690;11.770;2023-10-19T12:48:07;91365.91;;;32.21;32.92
59367;BME280;45163;47.690;11.770;2023-10-19T12:50:36;91366.41;;;31.67;32.18
59367;BME280;45163;47.690;11.770;2023-10-19T12:53:03;91369.97;;;32.44;30.52
59367;BME280;45163;47.690;11.770;2023-10-19T12:55:29;91354.72;;;30.63;33.40
59367;BME280;45163;47.690;11.770;2023-10-19T12:57:57;91350.66;;;30.07;35.61
59367;BME280;45163;47.690;11.770;2023-10-19T13:00:23;91351.06;;;30.84;36.03
59367;BME280;45163;47.690;11.770;2023-10-19T13:02:50;91351.31;;;30.52;33.99
59367;BME280;45163;47.690;11.770;2023-10-19T13:05:17;91349.00;;;31.33;33.20
59367;BME280;45163;47.690;11.770;2023-10-19T13:07:46;91354.44;;;32.06;34.06
59367;BME280;45163;47.690;11.770;2023-10-19T13:10:12;91341.50;;;31.38;33.20